createdAt,value
2023-05-19T00:02:21.410Z,2.00
2023-05-19T00:04:49.735Z,2.05
2023-05-19T00:07:17.762Z,2.20
2023-05-19T00:09:45.158Z,3.30
2023-05-19T00:12:13.659Z,1.80
2023-05-19T00:14:42.832Z,3.58
2023-05-19T00:17:10.181Z,1.85
2023-05-19T00:19:37.088Z,2.33
2023-05-19T00:22:04.414Z,1.50
2023-05-19T00:24:31.287Z,2.38
2023-05-19T00:26:58.215Z,1.90
2023-05-19T00:29:25.214Z,1.80
2023-05-19T00:31:53.520Z,1.60
2023-05-19T00:34:20.448Z,3.08
2023-05-19T00:36:47.371Z,1.88
2023-05-19T00:39:14.287Z,2.55
2023-05-19T00:41:41.205Z,2.58
2023-05-19T00:44:08.121Z,2.58
2023-05-19T00:46:35.046Z,2.15
2023-05-19T00:49:03.386Z,3.35
2023-05-19T00:51:30.357Z,3.00
2023-05-19T00:53:57.250Z,4.97
2023-05-19T00:56:24.149Z,2.58
2023-05-19T00:58:51.514Z,2.15
2023-05-19T01:01:18.436Z,1.88
2023-05-19T01:03:45.479Z,2.20
2023-05-19T01:06:13.842Z,2.78
2023-05-19T01:08:40.796Z,2.50
2023-05-19T01:11:07.831Z,3.78
2023-05-19T01:13:34.803Z,1.70
2023-05-19T01:16:04.448Z,2.63
2023-05-19T01:18:36.875Z,1.60
2023-05-19T01:21:13.210Z,1.67
2023-05-19T01:23:43.985Z,3.30
2023-05-19T01:26:24.196Z,5.65
2023-05-19T01:29:07.817Z,3.35
2023-05-19T01:31:36.290Z,6.25
2023-05-19T01:34:03.210Z,4.50
2023-05-19T01:36:30.143Z,3.70
2023-05-19T01:38:58.516Z,5.95
2023-05-19T01:41:25.439Z,6.13
2023-05-19T01:43:52.348Z,6.00
2023-05-19T01:46:19.281Z,5.35
2023-05-19T01:48:47.568Z,6.30
2023-05-19T01:51:14.516Z,5.82
2023-05-19T01:53:41.442Z,5.15
2023-05-19T01:56:08.321Z,7.05
2023-05-19T01:58:40.050Z,6.05
2023-05-19T02:01:11.188Z,5.70
2023-05-19T02:03:57.543Z,5.55
2023-05-19T02:06:30.226Z,8.32
2023-05-19T02:08:58.261Z,7.63
2023-05-19T02:11:27.636Z,7.93
2023-05-19T02:13:55.914Z,8.23
2023-05-19T02:16:23.506Z,7.80
2023-05-19T02:18:51.064Z,9.07
2023-05-19T02:21:19.355Z,11.75
2023-05-19T02:23:46.520Z,9.82
2023-05-19T02:26:13.492Z,9.50
2023-05-19T02:28:40.399Z,8.77
2023-05-19T02:31:07.322Z,10.48
2023-05-19T02:33:34.264Z,9.73
2023-05-19T02:36:01.217Z,11.65
2023-05-19T02:38:29.521Z,9.02
2023-05-19T02:40:56.426Z,7.40
2023-05-19T02:43:23.351Z,11.98
2023-05-19T02:45:50.237Z,12.90
2023-05-19T02:48:17.164Z,13.30
2023-05-19T02:50:44.093Z,14.63
2023-05-19T02:53:11.047Z,14.23
2023-05-19T02:55:39.370Z,13.63
2023-05-19T02:58:06.253Z,12.43
2023-05-19T03:00:33.398Z,12.70
2023-05-19T03:03:00.574Z,14.50
2023-05-19T03:05:27.539Z,10.57
2023-05-19T03:07:54.428Z,12.57
2023-05-19T03:10:21.351Z,15.52
2023-05-19T03:12:49.678Z,12.20
2023-05-19T03:15:16.575Z,15.85
2023-05-19T03:17:43.594Z,15.90
2023-05-19T03:20:11.276Z,12.07
2023-05-19T03:22:38.172Z,14.18
2023-05-19T03:25:05.719Z,13.35
2023-05-19T03:27:32.627Z,13.93
2023-05-19T03:30:00.968Z,12.85
2023-05-19T03:32:27.958Z,14.32
2023-05-19T03:34:54.903Z,14.18
2023-05-19T03:37:21.806Z,16.65
2023-05-19T03:39:48.728Z,17.85
2023-05-19T03:42:15.820Z,14.02
2023-05-19T03:44:42.695Z,13.98
2023-05-19T03:47:10.989Z,12.57
2023-05-19T03:49:37.933Z,13.55
2023-05-19T03:52:05.170Z,16.90
2023-05-19T03:54:32.095Z,13.35
2023-05-19T03:56:59.042Z,12.45
2023-05-19T03:59:26.004Z,10.80
2023-05-19T04:01:53.023Z,19.60
2023-05-19T04:04:21.406Z,14.13
2023-05-19T04:06:48.304Z,14.82
2023-05-19T04:09:15.997Z,16.60
2023-05-19T04:11:43.052Z,10.25
2023-05-19T04:14:09.946Z,15.40
2023-05-19T04:16:36.849Z,13.38
2023-05-19T04:19:03.836Z,18.10
2023-05-19T04:21:32.166Z,15.15
2023-05-19T04:23:59.073Z,16.52
2023-05-19T04:26:26.048Z,19.00
2023-05-19T04:28:52.991Z,13.25
2023-05-19T04:31:20.099Z,15.82
2023-05-19T04:33:47.066Z,13.75
2023-05-19T04:36:14.048Z,10.90
2023-05-19T04:38:42.347Z,20.65
2023-05-19T04:41:09.262Z,13.88
2023-05-19T04:43:36.195Z,13.20
2023-05-19T04:46:03.114Z,13.38
2023-05-19T04:48:29.988Z,15.80
2023-05-19T04:50:56.896Z,17.90
2023-05-19T04:53:23.782Z,13.40
2023-05-19T04:55:52.224Z,11.73
2023-05-19T04:58:19.134Z,14.05
2023-05-19T05:00:46.068Z,14.38
2023-05-19T05:03:13.128Z,15.05
2023-05-19T05:05:40.146Z,17.30
2023-05-19T05:08:07.050Z,19.27
2023-05-19T05:10:34.160Z,16.90
2023-05-19T05:13:03.412Z,13.50
2023-05-19T05:15:30.853Z,14.40
2023-05-19T05:17:58.285Z,18.63
2023-05-19T05:20:26.232Z,21.45
2023-05-19T05:22:53.757Z,15.73
2023-05-19T05:25:21.592Z,16.90
2023-05-19T05:27:48.531Z,14.38
2023-05-19T05:30:16.831Z,16.90
2023-05-19T05:32:43.797Z,21.02
2023-05-19T05:35:10.840Z,14.15
2023-05-19T05:37:37.792Z,14.30
2023-05-19T05:40:05.500Z,17.48
2023-05-19T05:42:32.416Z,14.95
2023-05-19T05:44:59.326Z,13.32
2023-05-19T05:47:28.288Z,18.98
2023-05-19T05:49:55.807Z,15.90
2023-05-19T05:52:22.725Z,17.92
2023-05-19T05:54:50.222Z,19.02
2023-05-19T05:57:17.601Z,14.43
2023-05-19T05:59:44.503Z,13.07
2023-05-19T06:02:11.498Z,18.08
2023-05-19T06:04:39.889Z,16.13
2023-05-19T06:07:06.819Z,16.23
2023-05-19T06:09:33.742Z,19.33
2023-05-19T06:12:00.635Z,17.30
2023-05-19T06:14:27.530Z,15.95
2023-05-19T06:16:54.454Z,19.50
2023-05-19T06:19:21.688Z,17.23
2023-05-19T06:21:50.101Z,20.08
2023-05-19T06:24:17.000Z,15.95
2023-05-19T06:26:43.928Z,17.25
2023-05-19T06:29:10.846Z,18.38
2023-05-19T06:31:37.858Z,19.00
2023-05-19T06:34:04.817Z,23.35
2023-05-19T06:36:31.724Z,20.90
2023-05-19T06:39:01.299Z,13.63
2023-05-19T06:41:29.523Z,16.25
2023-05-19T06:43:56.455Z,14.43
2023-05-19T06:46:23.508Z,20.20
2023-05-19T06:48:50.498Z,20.58
2023-05-19T06:51:17.382Z,16.15
2023-05-19T06:53:44.253Z,15.48
2023-05-19T06:56:12.545Z,14.70
2023-05-19T06:58:39.519Z,17.15
2023-05-19T07:01:06.415Z,16.35
2023-05-19T07:03:33.384Z,15.55
2023-05-19T07:06:00.350Z,13.98
2023-05-19T07:08:27.251Z,18.80
2023-05-19T07:10:54.194Z,21.63
2023-05-19T07:13:23.257Z,16.77
2023-05-19T07:15:50.785Z,14.43
2023-05-19T07:18:17.711Z,16.75
2023-05-19T07:20:44.666Z,16.30
2023-05-19T07:23:11.574Z,13.93
2023-05-19T07:25:38.463Z,17.23
2023-05-19T07:28:05.372Z,15.45
2023-05-19T07:30:33.955Z,14.25
2023-05-19T07:33:01.048Z,14.07
2023-05-19T07:35:27.969Z,15.25
2023-05-19T07:37:54.846Z,16.25
2023-05-19T07:40:21.726Z,15.60
2023-05-19T07:42:49.390Z,13.52
2023-05-19T07:45:16.338Z,14.00
2023-05-19T07:47:44.699Z,16.33
2023-05-19T07:50:11.808Z,18.10
2023-05-19T07:52:38.713Z,16.42
2023-05-19T07:55:06.115Z,17.83
2023-05-19T07:57:33.011Z,14.27
2023-05-19T08:00:00.063Z,12.52
2023-05-19T08:02:27.154Z,12.85
2023-05-19T08:04:55.492Z,15.55
2023-05-19T08:07:22.421Z,15.35
2023-05-19T08:09:49.399Z,11.93
2023-05-19T08:12:16.317Z,11.45
2023-05-19T08:14:43.225Z,13.98
2023-05-19T08:17:10.182Z,9.52
2023-05-19T08:19:37.097Z,13.13
2023-05-19T08:22:05.464Z,14.32
2023-05-19T08:24:32.446Z,12.25
2023-05-19T08:26:59.372Z,11.00
2023-05-19T08:29:26.336Z,11.57
2023-05-19T08:31:53.511Z,12.48
2023-05-19T08:34:20.496Z,9.68
2023-05-19T08:36:47.413Z,13.02
2023-05-19T08:39:15.735Z,14.35
2023-05-19T08:41:42.865Z,16.33
2023-05-19T08:44:09.762Z,14.60
2023-05-19T08:46:36.746Z,12.07
2023-05-19T08:49:07.738Z,12.43
2023-05-19T08:51:38.619Z,11.27
2023-05-19T08:54:10.927Z,14.52
2023-05-19T08:56:39.190Z,12.63
2023-05-19T08:59:06.182Z,14.02
2023-05-19T09:01:33.274Z,13.80
2023-05-19T09:04:00.274Z,13.85
2023-05-19T09:06:27.197Z,11.35
2023-05-19T09:08:54.267Z,19.10
2023-05-19T09:11:21.190Z,14.50
2023-05-19T09:13:49.472Z,14.55
2023-05-19T09:16:16.419Z,11.73
2023-05-19T09:18:53.475Z,13.32
2023-05-19T09:21:20.398Z,10.65
2023-05-19T09:23:47.306Z,13.48
2023-05-19T09:26:15.298Z,13.10
2023-05-19T09:28:42.177Z,13.10
2023-05-19T09:31:10.880Z,13.77
2023-05-19T09:33:38.429Z,13.98
2023-05-19T09:36:06.237Z,17.88
2023-05-19T09:38:33.226Z,12.05
2023-05-19T09:41:00.682Z,12.15
2023-05-19T09:43:27.816Z,13.65
2023-05-19T09:45:55.859Z,13.45
2023-05-19T09:48:26.123Z,19.05
2023-05-19T09:50:53.456Z,18.63
2023-05-19T09:53:21.523Z,16.58
2023-05-19T09:55:48.422Z,14.32
2023-05-19T09:58:16.873Z,17.33
2023-05-19T10:00:43.802Z,15.43
2023-05-19T10:03:10.807Z,15.10
2023-05-19T10:05:39.229Z,14.60
2023-05-19T10:08:06.116Z,16.40
2023-05-19T10:10:33.124Z,15.93
2023-05-19T10:13:00.160Z,13.65
2023-05-19T10:15:27.099Z,17.27
2023-05-19T10:17:54.062Z,13.45
2023-05-19T10:20:20.987Z,19.05
2023-05-19T10:22:49.287Z,17.63
2023-05-19T10:25:16.175Z,16.63
2023-05-19T10:27:43.867Z,14.75
2023-05-19T10:30:15.654Z,17.45
2023-05-19T10:32:43.668Z,16.23
2023-05-19T10:35:24.045Z,16.27
2023-05-19T10:37:56.215Z,16.40
2023-05-19T10:40:27.512Z,15.77
2023-05-19T10:43:02.454Z,17.63
2023-05-19T10:45:30.438Z,14.00
2023-05-19T10:47:57.350Z,18.77
2023-05-19T10:50:24.260Z,13.93
2023-05-19T10:52:54.657Z,16.02
2023-05-19T10:55:45.443Z,12.68
2023-05-19T10:58:12.332Z,14.90
2023-05-19T11:00:39.566Z,12.85
2023-05-19T11:03:13.542Z,14.15
2023-05-19T11:05:40.599Z,15.88
2023-05-19T11:08:08.913Z,13.55
2023-05-19T11:10:35.816Z,11.82
2023-05-19T11:13:02.724Z,13.50
2023-05-19T11:15:29.656Z,12.45
2023-05-19T11:17:56.672Z,11.75
2023-05-19T11:20:25.471Z,15.60
2023-05-19T11:23:04.486Z,13.93
2023-05-19T11:25:48.572Z,14.63
2023-05-19T11:28:18.728Z,10.48
2023-05-19T11:30:46.174Z,15.93
2023-05-19T11:33:13.411Z,11.18
2023-05-19T11:35:40.602Z,10.77
2023-05-19T11:38:07.653Z,12.57
2023-05-19T11:40:34.693Z,9.60
2023-05-19T11:43:03.096Z,11.43
2023-05-19T11:45:31.516Z,14.23
2023-05-19T11:48:02.755Z,10.18
2023-05-19T11:50:30.842Z,13.80
2023-05-19T11:52:59.316Z,10.38
2023-05-19T11:55:26.256Z,8.93
2023-05-19T12:00:31.235Z,12.52
2023-05-19T12:02:58.275Z,10.77
2023-05-19T12:05:25.936Z,11.43
2023-05-19T12:07:53.101Z,10.10
2023-05-19T12:10:22.611Z,10.02
2023-05-19T12:12:50.147Z,14.68
2023-05-19T12:15:19.153Z,13.02
2023-05-19T12:17:49.316Z,12.55
2023-05-19T12:20:16.436Z,7.85
2023-05-19T12:22:43.592Z,11.77
2023-05-19T12:25:10.530Z,11.88
2023-05-19T12:27:37.456Z,11.40
2023-05-19T12:30:04.950Z,11.82
2023-05-19T12:32:33.443Z,11.13
2023-05-19T12:35:02.577Z,12.02
2023-05-19T12:37:29.537Z,9.77
2023-05-19T12:39:56.432Z,13.00
2023-05-19T12:42:23.387Z,14.88
2023-05-19T12:44:51.225Z,10.32
2023-05-19T12:47:18.658Z,9.88
2023-05-19T12:49:54.981Z,10.80
2023-05-19T12:52:23.249Z,10.25
2023-05-19T12:54:50.295Z,10.55
2023-05-19T12:57:17.256Z,12.10
2023-05-19T12:59:44.675Z,11.00
2023-05-19T13:02:11.675Z,13.88
2023-05-19T13:04:38.809Z,7.20
2023-05-19T13:07:05.810Z,8.73
2023-05-19T13:09:34.070Z,10.95
2023-05-19T13:12:00.964Z,9.73
2023-05-19T13:14:27.900Z,8.02
2023-05-19T13:16:54.856Z,8.43
2023-05-19T13:19:25.240Z,9.65
2023-05-19T13:21:52.868Z,9.35
2023-05-19T13:24:19.815Z,8.80
2023-05-19T13:26:48.123Z,9.90
2023-05-19T13:29:15.059Z,8.10
2023-05-19T13:31:42.351Z,11.20
2023-05-19T13:34:09.297Z,10.32
2023-05-19T13:36:36.245Z,9.43
2023-05-19T13:39:03.207Z,7.50
2023-05-19T13:41:30.124Z,10.07
2023-05-19T13:43:58.889Z,8.52
2023-05-19T13:46:36.753Z,8.18
2023-05-19T13:49:11.432Z,9.82
2023-05-19T13:51:39.524Z,9.38
2023-05-19T13:54:06.473Z,6.70
2023-05-19T13:56:33.424Z,6.82
2023-05-19T13:59:01.985Z,10.80
2023-05-19T14:01:28.925Z,9.40
2023-05-19T14:03:56.046Z,7.10
2023-05-19T14:06:23.149Z,5.65
2023-05-19T14:08:50.110Z,9.38
2023-05-19T14:11:20.210Z,11.10
2023-05-19T14:13:49.067Z,7.50
2023-05-19T14:16:18.352Z,7.32
2023-05-19T14:18:45.413Z,9.20
2023-05-19T14:21:12.378Z,11.93
2023-05-19T14:23:39.279Z,10.38
2023-05-19T14:26:06.285Z,8.82
2023-05-19T14:28:33.174Z,8.20
2023-05-19T14:31:00.060Z,9.52
2023-05-19T14:33:29.783Z,8.40
2023-05-19T14:35:59.765Z,7.75
2023-05-19T14:38:27.662Z,7.65
2023-05-19T14:40:55.744Z,7.18
2023-05-19T14:43:22.697Z,8.70
2023-05-19T14:45:49.635Z,7.72
2023-05-19T14:48:16.859Z,8.57
2023-05-19T14:50:46.089Z,7.72
2023-05-19T14:53:13.002Z,9.25
2023-05-19T14:55:39.928Z,7.15
2023-05-19T14:58:15.936Z,9.45
2023-05-19T15:00:47.782Z,8.13
2023-05-19T15:03:14.899Z,7.43
2023-05-19T15:05:41.836Z,7.25
2023-05-19T15:08:10.245Z,7.43
2023-05-19T15:10:37.222Z,6.43
2023-05-19T15:13:04.119Z,7.32
2023-05-19T15:15:31.006Z,7.68
2023-05-19T15:17:57.942Z,5.72
2023-05-19T15:20:25.415Z,9.60
2023-05-19T15:22:53.346Z,9.02
2023-05-19T15:25:21.649Z,8.70
2023-05-19T15:27:48.566Z,7.03
2023-05-19T15:30:15.708Z,7.43
2023-05-19T15:32:42.692Z,8.98
2023-05-19T15:35:09.959Z,6.15
2023-05-19T15:37:36.884Z,6.60
2023-05-19T15:40:04.440Z,8.60
2023-05-19T15:42:32.744Z,8.55
2023-05-19T15:44:59.658Z,9.45
2023-05-19T15:47:26.535Z,7.75
2023-05-19T15:49:53.443Z,8.45
2023-05-19T15:52:20.346Z,9.40
2023-05-19T15:54:47.222Z,8.45
2023-05-19T15:57:14.122Z,9.02
2023-05-19T15:59:42.388Z,7.68
2023-05-19T16:02:09.429Z,8.32
2023-05-19T16:04:36.372Z,7.55
2023-05-19T16:07:03.261Z,6.25
2023-05-19T16:09:30.228Z,6.93
2023-05-19T16:11:57.191Z,8.27
2023-05-19T16:14:24.171Z,5.63
2023-05-19T16:16:52.497Z,5.22
2023-05-19T16:19:19.528Z,7.15
2023-05-19T16:21:46.471Z,10.25
2023-05-19T16:24:13.392Z,9.93
2023-05-19T16:26:40.310Z,6.85
2023-05-19T16:29:07.335Z,7.63
2023-05-19T16:31:34.285Z,8.02
2023-05-19T16:34:02.648Z,8.18
2023-05-19T16:36:29.586Z,6.40
2023-05-19T16:38:56.504Z,7.68
2023-05-19T16:41:23.405Z,9.52
2023-05-19T16:43:50.323Z,7.47
2023-05-19T16:46:17.297Z,8.52
2023-05-19T16:48:44.281Z,8.75
2023-05-19T16:51:12.589Z,4.90
2023-05-19T16:53:39.532Z,9.40
2023-05-19T16:56:06.630Z,6.40
2023-05-19T16:58:33.550Z,6.75
2023-05-19T17:01:00.503Z,8.02
2023-05-19T17:03:27.657Z,8.40
2023-05-19T17:05:54.597Z,7.97
2023-05-19T17:08:22.877Z,5.93
2023-05-19T17:10:49.845Z,10.50
2023-05-19T17:13:16.841Z,6.47
2023-05-19T17:15:43.746Z,8.73
2023-05-19T17:18:11.249Z,6.35
2023-05-19T17:20:38.201Z,7.30
2023-05-19T17:23:05.089Z,5.85
2023-05-19T17:25:34.395Z,5.32
2023-05-19T17:28:01.293Z,6.80
2023-05-19T17:30:28.201Z,6.88
2023-05-19T17:32:55.258Z,7.65
2023-05-19T17:35:22.215Z,8.45
2023-05-19T17:37:49.145Z,6.00
2023-05-19T17:40:17.585Z,5.47
2023-05-19T17:42:45.873Z,6.60
2023-05-19T17:45:12.801Z,5.65
2023-05-19T17:47:39.763Z,7.85
2023-05-19T17:50:07.565Z,8.48
2023-05-19T17:52:34.854Z,8.63
2023-05-19T17:55:02.127Z,7.88
2023-05-19T17:57:29.462Z,8.02
2023-05-19T17:59:58.475Z,5.88
2023-05-19T18:02:26.022Z,9.63
2023-05-19T18:04:53.593Z,5.90
2023-05-19T18:07:20.515Z,9.13
2023-05-19T18:09:47.767Z,6.30
2023-05-19T18:12:14.711Z,7.28
2023-05-19T18:14:41.670Z,5.90
2023-05-19T18:17:09.995Z,5.70
2023-05-19T18:19:36.890Z,5.75
2023-05-19T18:22:04.028Z,7.15
2023-05-19T18:24:30.968Z,7.90
2023-05-19T18:26:57.917Z,8.02
2023-05-19T18:29:24.836Z,7.20
2023-05-19T18:31:51.832Z,8.07
2023-05-19T18:34:20.118Z,5.40
2023-05-19T18:36:47.023Z,6.15
2023-05-19T18:39:13.928Z,7.38
2023-05-19T18:41:40.890Z,5.45
2023-05-19T18:44:07.801Z,6.75
2023-05-19T18:46:34.702Z,7.93
2023-05-19T18:49:01.601Z,8.15
2023-05-19T18:51:29.892Z,6.00
2023-05-19T18:53:56.798Z,7.55
2023-05-19T18:56:23.879Z,5.75
2023-05-19T18:58:51.214Z,9.15
2023-05-19T19:01:18.116Z,6.43
2023-05-19T19:03:45.089Z,6.88
2023-05-19T19:06:11.998Z,6.28
2023-05-19T19:08:40.308Z,10.63
2023-05-19T19:11:07.485Z,8.65
2023-05-19T19:13:34.383Z,8.40
2023-05-19T19:16:01.300Z,8.13
2023-05-19T19:18:28.231Z,10.07
2023-05-19T19:20:55.279Z,8.77
2023-05-19T19:23:22.193Z,7.28
2023-05-19T19:25:50.527Z,8.82
2023-05-19T19:28:17.487Z,8.25
2023-05-19T19:30:45.082Z,8.45
2023-05-19T19:33:12.044Z,8.45
2023-05-19T19:35:39.009Z,7.22
2023-05-19T19:38:05.969Z,9.32
2023-05-19T19:40:33.019Z,9.00
2023-05-19T19:43:01.502Z,11.18
2023-05-19T19:45:28.405Z,10.25
2023-05-19T19:47:55.385Z,9.38
2023-05-19T19:50:22.330Z,10.45
2023-05-19T19:52:49.260Z,8.73
2023-05-19T19:55:16.284Z,8.38
2023-05-19T19:57:43.213Z,7.25
2023-05-19T20:00:12.981Z,12.80
2023-05-19T20:02:51.677Z,9.60
2023-05-19T20:05:22.700Z,8.27
2023-05-19T20:07:49.660Z,11.90
2023-05-19T20:10:16.925Z,8.38
2023-05-19T20:12:43.817Z,13.45
2023-05-19T20:15:12.516Z,9.30
2023-05-19T20:17:39.439Z,9.27
2023-05-19T20:20:07.557Z,9.95
2023-05-19T20:22:34.792Z,8.60
2023-05-19T20:25:01.773Z,7.97
2023-05-19T20:27:28.693Z,10.38
2023-05-19T20:29:55.620Z,8.20
2023-05-19T20:32:24.005Z,9.45
2023-05-19T20:34:51.270Z,9.77
2023-05-19T20:37:18.195Z,8.70
2023-05-19T20:39:45.105Z,10.75
2023-05-19T20:42:12.025Z,9.23
2023-05-19T20:44:38.992Z,7.88
2023-05-19T20:47:05.885Z,9.65
2023-05-19T20:49:34.191Z,7.75
2023-05-19T20:52:01.097Z,10.07
2023-05-19T20:54:28.054Z,8.60
2023-05-19T20:56:54.952Z,9.13
2023-05-19T20:59:21.883Z,8.75
2023-05-19T21:01:48.839Z,9.50
2023-05-19T21:04:15.810Z,10.07
2023-05-19T21:06:44.166Z,9.60
2023-05-19T21:09:11.052Z,10.85
2023-05-19T21:11:37.921Z,11.63
2023-05-19T21:14:04.810Z,9.43
2023-05-19T21:16:31.844Z,8.60
2023-05-19T21:18:58.827Z,7.30
2023-05-19T21:21:25.843Z,8.43
2023-05-19T21:23:54.170Z,7.82
2023-05-19T21:26:21.086Z,8.43
2023-05-19T21:28:48.003Z,9.20
2023-05-19T21:31:14.964Z,10.38
2023-05-19T21:33:41.951Z,8.05
2023-05-19T21:36:08.858Z,6.70
2023-05-19T21:38:35.735Z,9.10
2023-05-19T21:41:04.010Z,7.75
2023-05-19T21:43:30.895Z,7.45
2023-05-19T21:45:57.976Z,9.70
2023-05-19T21:48:24.891Z,11.75
2023-05-19T21:50:52.948Z,6.93
2023-05-19T21:53:19.863Z,9.57
2023-05-19T21:55:46.750Z,8.45
2023-05-19T21:58:15.047Z,10.98
2023-05-19T22:00:41.935Z,9.75
2023-05-19T22:03:08.974Z,7.60
2023-05-19T22:05:36.072Z,10.00
2023-05-19T22:08:03.159Z,9.27
2023-05-19T22:10:30.059Z,8.57
2023-05-19T22:12:57.024Z,8.75
2023-05-19T22:15:25.354Z,9.40
2023-05-19T22:17:52.293Z,8.52
2023-05-19T22:20:19.281Z,9.50
2023-05-19T22:22:46.220Z,8.57
2023-05-19T22:25:13.174Z,7.13
2023-05-19T22:27:40.082Z,8.10
2023-05-19T22:30:08.135Z,8.88
2023-05-19T22:32:36.482Z,8.88
2023-05-19T22:35:03.653Z,9.82
2023-05-19T22:37:30.669Z,9.25
2023-05-19T22:39:57.598Z,9.95
2023-05-19T22:42:24.533Z,9.02
2023-05-19T22:44:51.435Z,10.82
2023-05-19T22:47:18.402Z,9.27
2023-05-19T22:49:46.764Z,8.75
2023-05-19T22:52:13.694Z,10.05
2023-05-19T22:54:40.587Z,8.90
2023-05-19T22:57:07.452Z,12.40
2023-05-19T22:59:34.337Z,12.43
2023-05-19T23:02:01.255Z,12.02
2023-05-19T23:04:28.319Z,10.95
2023-05-19T23:06:56.721Z,8.45
2023-05-19T23:09:23.796Z,11.02
2023-05-19T23:11:50.713Z,10.35
2023-05-19T23:14:17.601Z,10.35
2023-05-19T23:16:44.535Z,11.25
2023-05-19T23:19:11.585Z,12.18
2023-05-19T23:21:38.602Z,9.57
2023-05-19T23:24:07.013Z,11.02
2023-05-19T23:26:33.909Z,10.07
2023-05-19T23:29:00.793Z,9.02
2023-05-19T23:31:27.810Z,9.63
2023-05-19T23:33:54.847Z,12.00
2023-05-19T23:36:21.770Z,10.70
2023-05-19T23:38:48.653Z,8.88
2023-05-19T23:41:16.906Z,11.10
2023-05-19T23:43:43.788Z,8.52
2023-05-19T23:46:10.743Z,9.10
2023-05-19T23:48:37.754Z,10.43
2023-05-19T23:51:04.967Z,10.30
2023-05-19T23:53:31.873Z,12.93
2023-05-19T23:55:58.885Z,11.05
2023-05-19T23:58:27.226Z,11.55
